sensor_id;sensor_type;location;lat;lon;timestamp;P1;durP1;ratioP1;P2;durP2;ratioP2
14171;SDS011;7165;52.388;4.928;2023-02-18T00:01:26;20.30;;;10.38;;
14171;SDS011;7165;52.388;4.928;2023-02-18T00:03:55;28.85;;;12.60;;
14171;SDS011;7165;52.388;4.928;2023-02-18T00:06:24;22.85;;;11.43;;
14171;SDS011;7165;52.388;4.928;2023-02-18T00:08:52;21.42;;;11.07;;
14171;SDS011;7165;52.388;4.928;2023-02-18T00:11:20;29.85;;;13.63;;
14171;SDS011;7165;52.388;4.928;2023-02-18T00:13:50;23.50;;;13.95;;
14171;SDS011;7165;52.388;4.928;2023-02-18T00:16:17;28.77;;;14.85;;
14171;SDS011;7165;52.388;4.928;2023-02-18T00:18:44;26.98;;;14.48;;
14171;SDS011;7165;52.388;4.928;2023-02-18T00:21:12;30.45;;;12.90;;
14171;SDS011;7165;52.388;4.928;2023-02-18T00:23:39;28.02;;;13.95;;
14171;SDS011;7165;52.388;4.928;2023-02-18T00:26:07;32.03;;;13.95;;
14171;SDS011;7165;52.388;4.928;2023-02-18T00:28:36;20.08;;;13.40;;
14171;SDS011;7165;52.388;4.928;2023-02-18T00:31:06;29.65;;;14.18;;
14171;SDS011;7165;52.388;4.928;2023-02-18T00:33:34;31.92;;;15.18;;
14171;SDS011;7165;52.388;4.928;2023-02-18T00:36:01;32.22;;;14.45;;
14171;SDS011;7165;52.388;4.928;2023-02-18T00:38:30;28.08;;;14.15;;
14171;SDS011;7165;52.388;4.928;2023-02-18T00:40:57;29.88;;;14.77;;
14171;SDS011;7165;52.388;4.928;2023-02-18T00:43:24;27.88;;;15.82;;
14171;SDS011;7165;52.388;4.928;2023-02-18T00:45:50;38.67;;;16.85;;
14171;SDS011;7165;52.388;4.928;2023-02-18T00:48:17;31.65;;;16.38;;
14171;SDS011;7165;52.388;4.928;2023-02-18T00:50:44;35.10;;;16.15;;
14171;SDS011;7165;52.388;4.928;2023-02-18T00:53:11;32.97;;;14.43;;
14171;SDS011;7165;52.388;4.928;2023-02-18T00:55:40;29.17;;;16.08;;
14171;SDS011;7165;52.388;4.928;2023-02-18T00:58:07;28.73;;;16.02;;
14171;SDS011;7165;52.388;4.928;2023-02-18T01:00:34;34.17;;;16.73;;
14171;SDS011;7165;52.388;4.928;2023-02-18T01:03:01;30.02;;;16.10;;
14171;SDS011;7165;52.388;4.928;2023-02-18T01:05:30;37.78;;;16.83;;
14171;SDS011;7165;52.388;4.928;2023-02-18T01:07:56;33.28;;;17.00;;
14171;SDS011;7165;52.388;4.928;2023-02-18T01:10:23;40.95;;;18.80;;
14171;SDS011;7165;52.388;4.928;2023-02-18T01:12:51;33.08;;;18.88;;
14171;SDS011;7165;52.388;4.928;2023-02-18T01:15:18;36.15;;;16.90;;
14171;SDS011;7165;52.388;4.928;2023-02-18T01:17:45;28.73;;;17.77;;
14171;SDS011;7165;52.388;4.928;2023-02-18T01:20:12;36.63;;;16.77;;
14171;SDS011;7165;52.388;4.928;2023-02-18T01:22:39;34.42;;;18.45;;
14171;SDS011;7165;52.388;4.928;2023-02-18T01:25:07;39.00;;;19.52;;
14171;SDS011;7165;52.388;4.928;2023-02-18T01:27:35;37.75;;;19.50;;
14171;SDS011;7165;52.388;4.928;2023-02-18T01:30:04;37.10;;;20.75;;
14171;SDS011;7165;52.388;4.928;2023-02-18T01:32:32;33.60;;;19.48;;
14171;SDS011;7165;52.388;4.928;2023-02-18T01:34:59;41.22;;;20.05;;
14171;SDS011;7165;52.388;4.928;2023-02-18T01:37:26;40.58;;;21.48;;
14171;SDS011;7165;52.388;4.928;2023-02-18T01:39:53;35.83;;;20.77;;
14171;SDS011;7165;52.388;4.928;2023-02-18T01:42:20;46.85;;;22.42;;
14171;SDS011;7165;52.388;4.928;2023-02-18T01:44:49;39.67;;;23.55;;
14171;SDS011;7165;52.388;4.928;2023-02-18T01:47:17;35.95;;;21.33;;
14171;SDS011;7165;52.388;4.928;2023-02-18T01:49:44;38.75;;;21.85;;
14171;SDS011;7165;52.388;4.928;2023-02-18T01:52:15;35.13;;;23.33;;
14171;SDS011;7165;52.388;4.928;2023-02-18T01:54:44;37.80;;;22.98;;
14171;SDS011;7165;52.388;4.928;2023-02-18T01:57:14;43.63;;;26.83;;
14171;SDS011;7165;52.388;4.928;2023-02-18T01:59:43;43.65;;;27.20;;
14171;SDS011;7165;52.388;4.928;2023-02-18T02:02:14;39.65;;;25.05;;
14171;SDS011;7165;52.388;4.928;2023-02-18T02:04:45;39.15;;;25.70;;
14171;SDS011;7165;52.388;4.928;2023-02-18T02:07:12;45.22;;;26.48;;
14171;SDS011;7165;52.388;4.928;2023-02-18T02:09:40;38.92;;;26.60;;
14171;SDS011;7165;52.388;4.928;2023-02-18T02:12:12;41.80;;;29.05;;
14171;SDS011;7165;52.388;4.928;2023-02-18T02:15:07;41.42;;;28.70;;
14171;SDS011;7165;52.388;4.928;2023-02-18T02:17:55;44.60;;;29.85;;
14171;SDS011;7165;52.388;4.928;2023-02-18T02:23:51;43.90;;;28.08;;
14171;SDS011;7165;52.388;4.928;2023-02-18T02:26:57;44.13;;;28.15;;
14171;SDS011;7165;52.388;4.928;2023-02-18T02:32:57;47.05;;;32.65;;
14171;SDS011;7165;52.388;4.928;2023-02-18T02:35:52;47.25;;;31.90;;
14171;SDS011;7165;52.388;4.928;2023-02-18T02:38:23;47.00;;;33.13;;
14171;SDS011;7165;52.388;4.928;2023-02-18T02:40:58;43.58;;;31.08;;
14171;SDS011;7165;52.388;4.928;2023-02-18T02:43:35;44.47;;;32.35;;
14171;SDS011;7165;52.388;4.928;2023-02-18T02:46:10;45.28;;;32.72;;
14171;SDS011;7165;52.388;4.928;2023-02-18T02:48:43;47.85;;;31.83;;
14171;SDS011;7165;52.388;4.928;2023-02-18T02:51:17;44.72;;;29.98;;
14171;SDS011;7165;52.388;4.928;2023-02-18T02:53:49;43.13;;;28.85;;
14171;SDS011;7165;52.388;4.928;2023-02-18T02:56:16;40.65;;;30.17;;
14171;SDS011;7165;52.388;4.928;2023-02-18T02:58:47;39.30;;;29.50;;
14171;SDS011;7165;52.388;4.928;2023-02-18T03:01:26;43.78;;;30.27;;
14171;SDS011;7165;52.388;4.928;2023-02-18T03:04:09;42.88;;;29.13;;
14171;SDS011;7165;52.388;4.928;2023-02-18T03:06:53;45.53;;;31.05;;
14171;SDS011;7165;52.388;4.928;2023-02-18T03:09:37;42.53;;;31.55;;
14171;SDS011;7165;52.388;4.928;2023-02-18T03:12:18;40.67;;;28.80;;
14171;SDS011;7165;52.388;4.928;2023-02-18T03:14:52;45.30;;;29.05;;
14171;SDS011;7165;52.388;4.928;2023-02-18T03:17:25;43.95;;;30.08;;
14171;SDS011;7165;52.388;4.928;2023-02-18T03:19:56;36.03;;;27.90;;
14171;SDS011;7165;52.388;4.928;2023-02-18T03:22:29;40.67;;;28.05;;
14171;SDS011;7165;52.388;4.928;2023-02-18T03:24:58;36.83;;;27.50;;
14171;SDS011;7165;52.388;4.928;2023-02-18T03:27:26;34.83;;;27.02;;
14171;SDS011;7165;52.388;4.928;2023-02-18T03:29:56;36.08;;;25.55;;
14171;SDS011;7165;52.388;4.928;2023-02-18T03:32:29;36.95;;;25.52;;
14171;SDS011;7165;52.388;4.928;2023-02-18T03:35:01;35.60;;;25.38;;
14171;SDS011;7165;52.388;4.928;2023-02-18T03:37:32;30.75;;;23.42;;
14171;SDS011;7165;52.388;4.928;2023-02-18T03:40:05;32.65;;;25.17;;
14171;SDS011;7165;52.388;4.928;2023-02-18T03:42:34;30.08;;;24.15;;
14171;SDS011;7165;52.388;4.928;2023-02-18T03:45:00;31.95;;;23.75;;
14171;SDS011;7165;52.388;4.928;2023-02-18T03:47:28;40.15;;;25.23;;
14171;SDS011;7165;52.388;4.928;2023-02-18T03:49:54;27.67;;;21.15;;
14171;SDS011;7165;52.388;4.928;2023-02-18T03:52:21;26.67;;;20.75;;
14171;SDS011;7165;52.388;4.928;2023-02-18T03:54:49;26.35;;;19.83;;
14171;SDS011;7165;52.388;4.928;2023-02-18T03:57:16;23.40;;;19.00;;
14171;SDS011;7165;52.388;4.928;2023-02-18T03:59:42;25.30;;;18.38;;
14171;SDS011;7165;52.388;4.928;2023-02-18T04:02:09;20.00;;;15.85;;
14171;SDS011;7165;52.388;4.928;2023-02-18T04:04:36;20.77;;;15.85;;
14171;SDS011;7165;52.388;4.928;2023-02-18T04:07:02;18.83;;;14.43;;
14171;SDS011;7165;52.388;4.928;2023-02-18T04:09:29;16.30;;;14.60;;
14171;SDS011;7165;52.388;4.928;2023-02-18T04:11:57;14.15;;;12.73;;
14171;SDS011;7165;52.388;4.928;2023-02-18T04:14:24;16.02;;;13.88;;
14171;SDS011;7165;52.388;4.928;2023-02-18T04:16:50;14.20;;;12.88;;
14171;SDS011;7165;52.388;4.928;2023-02-18T04:19:17;15.30;;;13.18;;
14171;SDS011;7165;52.388;4.928;2023-02-18T04:21:44;17.25;;;14.38;;
14171;SDS011;7165;52.388;4.928;2023-02-18T04:24:10;17.67;;;14.23;;
14171;SDS011;7165;52.388;4.928;2023-02-18T04:26:37;16.92;;;14.60;;
14171;SDS011;7165;52.388;4.928;2023-02-18T04:29:05;17.90;;;13.95;;
14171;SDS011;7165;52.388;4.928;2023-02-18T04:31:32;14.95;;;13.20;;
14171;SDS011;7165;52.388;4.928;2023-02-18T04:33:59;16.92;;;14.02;;
14171;SDS011;7165;52.388;4.928;2023-02-18T04:36:25;18.30;;;15.55;;
14171;SDS011;7165;52.388;4.928;2023-02-18T04:38:52;17.85;;;15.70;;
14171;SDS011;7165;52.388;4.928;2023-02-18T04:41:19;22.65;;;16.90;;
14171;SDS011;7165;52.388;4.928;2023-02-18T04:43:46;23.08;;;18.80;;
14171;SDS011;7165;52.388;4.928;2023-02-18T04:46:13;23.60;;;19.77;;
14171;SDS011;7165;52.388;4.928;2023-02-18T04:48:40;23.65;;;20.17;;
14171;SDS011;7165;52.388;4.928;2023-02-18T04:51:07;25.50;;;19.45;;
14171;SDS011;7165;52.388;4.928;2023-02-18T04:53:34;24.48;;;19.02;;
14171;SDS011;7165;52.388;4.928;2023-02-18T04:56:00;25.02;;;18.58;;
14171;SDS011;7165;52.388;4.928;2023-02-18T04:58:27;28.55;;;21.05;;
14171;SDS011;7165;52.388;4.928;2023-02-18T05:00:57;27.90;;;20.77;;
14171;SDS011;7165;52.388;4.928;2023-02-18T05:03:25;32.53;;;20.77;;
14171;SDS011;7165;52.388;4.928;2023-02-18T05:05:52;29.63;;;20.42;;
14171;SDS011;7165;52.388;4.928;2023-02-18T05:08:19;29.13;;;19.38;;
14171;SDS011;7165;52.388;4.928;2023-02-18T05:10:45;25.08;;;18.60;;
14171;SDS011;7165;52.388;4.928;2023-02-18T05:13:12;25.38;;;19.85;;
14171;SDS011;7165;52.388;4.928;2023-02-18T05:15:39;27.33;;;18.55;;
14171;SDS011;7165;52.388;4.928;2023-02-18T05:18:06;21.52;;;15.63;;
14171;SDS011;7165;52.388;4.928;2023-02-18T05:20:34;18.75;;;14.73;;
14171;SDS011;7165;52.388;4.928;2023-02-18T05:23:00;26.67;;;14.88;;
14171;SDS011;7165;52.388;4.928;2023-02-18T05:25:27;23.85;;;14.73;;
14171;SDS011;7165;52.388;4.928;2023-02-18T05:27:54;19.67;;;14.43;;
14171;SDS011;7165;52.388;4.928;2023-02-18T05:30:20;23.40;;;13.68;;
14171;SDS011;7165;52.388;4.928;2023-02-18T05:32:47;20.83;;;13.25;;
14171;SDS011;7165;52.388;4.928;2023-02-18T05:35:13;18.40;;;13.15;;
14171;SDS011;7165;52.388;4.928;2023-02-18T05:37:42;20.98;;;14.77;;
14171;SDS011;7165;52.388;4.928;2023-02-18T05:40:09;15.88;;;12.20;;
14171;SDS011;7165;52.388;4.928;2023-02-18T05:42:36;18.75;;;12.25;;
14171;SDS011;7165;52.388;4.928;2023-02-18T05:45:03;22.35;;;12.95;;
14171;SDS011;7165;52.388;4.928;2023-02-18T05:47:30;19.52;;;13.40;;
14171;SDS011;7165;52.388;4.928;2023-02-18T05:49:57;24.98;;;12.73;;
14171;SDS011;7165;52.388;4.928;2023-02-18T05:52:24;15.77;;;11.70;;
14171;SDS011;7165;52.388;4.928;2023-02-18T05:54:52;21.63;;;13.30;;
14171;SDS011;7165;52.388;4.928;2023-02-18T05:57:18;22.88;;;13.30;;
14171;SDS011;7165;52.388;4.928;2023-02-18T05:59:45;23.38;;;12.50;;
14171;SDS011;7165;52.388;4.928;2023-02-18T06:02:12;21.92;;;13.65;;
14171;SDS011;7165;52.388;4.928;2023-02-18T06:04:38;19.52;;;12.48;;
14171;SDS011;7165;52.388;4.928;2023-02-18T06:07:05;19.83;;;12.93;;
14171;SDS011;7165;52.388;4.928;2023-02-18T06:09:32;20.20;;;12.00;;
14171;SDS011;7165;52.388;4.928;2023-02-18T06:12:00;16.38;;;10.95;;
14171;SDS011;7165;52.388;4.928;2023-02-18T06:14:27;23.98;;;12.27;;
14171;SDS011;7165;52.388;4.928;2023-02-18T06:16:54;19.95;;;11.10;;
14171;SDS011;7165;52.388;4.928;2023-02-18T06:19:20;15.40;;;9.98;;
14171;SDS011;7165;52.388;4.928;2023-02-18T06:21:47;17.55;;;11.10;;
14171;SDS011;7165;52.388;4.928;2023-02-18T06:24:14;16.17;;;11.48;;
14171;SDS011;7165;52.388;4.928;2023-02-18T06:26:40;21.33;;;11.70;;
14171;SDS011;7165;52.388;4.928;2023-02-18T06:29:08;20.85;;;12.52;;
14171;SDS011;7165;52.388;4.928;2023-02-18T06:31:35;19.52;;;12.35;;
14171;SDS011;7165;52.388;4.928;2023-02-18T06:34:02;18.23;;;12.55;;
14171;SDS011;7165;52.388;4.928;2023-02-18T06:36:28;17.15;;;12.25;;
14171;SDS011;7165;52.388;4.928;2023-02-18T06:38:55;14.90;;;11.77;;
14171;SDS011;7165;52.388;4.928;2023-02-18T06:41:23;21.83;;;14.73;;
14171;SDS011;7165;52.388;4.928;2023-02-18T06:43:50;24.65;;;14.65;;
14171;SDS011;7165;52.388;4.928;2023-02-18T06:46:18;22.08;;;13.95;;
14171;SDS011;7165;52.388;4.928;2023-02-18T06:48:45;20.20;;;12.95;;
14171;SDS011;7165;52.388;4.928;2023-02-18T06:51:12;17.85;;;12.52;;
14171;SDS011;7165;52.388;4.928;2023-02-18T06:53:40;15.23;;;11.82;;
14171;SDS011;7165;52.388;4.928;2023-02-18T06:56:06;18.98;;;12.85;;
14171;SDS011;7165;52.388;4.928;2023-02-18T06:58:33;17.25;;;12.13;;
14171;SDS011;7165;52.388;4.928;2023-02-18T07:01:00;19.90;;;11.57;;
14171;SDS011;7165;52.388;4.928;2023-02-18T07:03:28;19.55;;;12.75;;
14171;SDS011;7165;52.388;4.928;2023-02-18T07:05:54;14.43;;;11.47;;
14171;SDS011;7165;52.388;4.928;2023-02-18T07:08:21;16.70;;;12.10;;
14171;SDS011;7165;52.388;4.928;2023-02-18T07:10:48;16.05;;;10.88;;
14171;SDS011;7165;52.388;4.928;2023-02-18T07:13:15;17.33;;;11.20;;
14171;SDS011;7165;52.388;4.928;2023-02-18T07:15:42;16.23;;;10.68;;
14171;SDS011;7165;52.388;4.928;2023-02-18T07:18:09;16.73;;;10.90;;
14171;SDS011;7165;52.388;4.928;2023-02-18T07:20:37;18.08;;;12.73;;
14171;SDS011;7165;52.388;4.928;2023-02-18T07:23:03;13.15;;;10.45;;
14171;SDS011;7165;52.388;4.928;2023-02-18T07:25:30;14.45;;;10.15;;
14171;SDS011;7165;52.388;4.928;2023-02-18T07:27:56;18.20;;;10.43;;
14171;SDS011;7165;52.388;4.928;2023-02-18T07:30:23;19.48;;;10.23;;
14171;SDS011;7165;52.388;4.928;2023-02-18T07:32:50;22.90;;;10.60;;
14171;SDS011;7165;52.388;4.928;2023-02-18T07:35:16;15.43;;;9.63;;
14171;SDS011;7165;52.388;4.928;2023-02-18T07:37:46;14.55;;;9.63;;
14171;SDS011;7165;52.388;4.928;2023-02-18T07:40:16;16.05;;;8.88;;
14171;SDS011;7165;52.388;4.928;2023-02-18T07:42:44;14.73;;;7.22;;
14171;SDS011;7165;52.388;4.928;2023-02-18T07:45:11;22.88;;;8.40;;
14171;SDS011;7165;52.388;4.928;2023-02-18T07:47:38;25.20;;;6.90;;
14171;SDS011;7165;52.388;4.928;2023-02-18T07:50:06;12.90;;;6.63;;
14171;SDS011;7165;52.388;4.928;2023-02-18T07:52:34;17.50;;;6.03;;
14171;SDS011;7165;52.388;4.928;2023-02-18T07:55:02;16.33;;;6.80;;
14171;SDS011;7165;52.388;4.928;2023-02-18T07:57:28;12.02;;;5.45;;
14171;SDS011;7165;52.388;4.928;2023-02-18T07:59:55;18.10;;;7.30;;
14171;SDS011;7165;52.388;4.928;2023-02-18T08:02:22;22.20;;;7.45;;
14171;SDS011;7165;52.388;4.928;2023-02-18T08:04:49;16.50;;;6.18;;
14171;SDS011;7165;52.388;4.928;2023-02-18T08:07:17;15.80;;;5.40;;
14171;SDS011;7165;52.388;4.928;2023-02-18T08:09:45;15.85;;;6.47;;
14171;SDS011;7165;52.388;4.928;2023-02-18T08:12:14;17.02;;;5.22;;
14171;SDS011;7165;52.388;4.928;2023-02-18T08:14:41;14.05;;;5.03;;
14171;SDS011;7165;52.388;4.928;2023-02-18T08:17:07;11.32;;;4.43;;
14171;SDS011;7165;52.388;4.928;2023-02-18T08:19:34;15.70;;;5.10;;
14171;SDS011;7165;52.388;4.928;2023-02-18T08:22:00;17.05;;;5.80;;
14171;SDS011;7165;52.388;4.928;2023-02-18T08:24:27;15.30;;;5.97;;
14171;SDS011;7165;52.388;4.928;2023-02-18T08:26:54;14.23;;;5.65;;
14171;SDS011;7165;52.388;4.928;2023-02-18T08:29:22;18.40;;;6.93;;
14171;SDS011;7165;52.388;4.928;2023-02-18T08:31:49;13.60;;;5.20;;
14171;SDS011;7165;52.388;4.928;2023-02-18T08:34:16;11.82;;;5.25;;
14171;SDS011;7165;52.388;4.928;2023-02-18T08:36:43;16.05;;;4.50;;
14171;SDS011;7165;52.388;4.928;2023-02-18T08:39:09;12.00;;;4.93;;
14171;SDS011;7165;52.388;4.928;2023-02-18T08:41:36;14.63;;;4.15;;
14171;SDS011;7165;52.388;4.928;2023-02-18T08:44:03;13.00;;;5.65;;
14171;SDS011;7165;52.388;4.928;2023-02-18T08:46:31;17.60;;;4.80;;
14171;SDS011;7165;52.388;4.928;2023-02-18T08:48:58;10.95;;;4.00;;
14171;SDS011;7165;52.388;4.928;2023-02-18T08:51:24;12.13;;;4.05;;
14171;SDS011;7165;52.388;4.928;2023-02-18T08:53:52;16.02;;;4.35;;
14171;SDS011;7165;52.388;4.928;2023-02-18T08:56:19;15.10;;;4.43;;
14171;SDS011;7165;52.388;4.928;2023-02-18T08:58:45;12.50;;;3.95;;
14171;SDS011;7165;52.388;4.928;2023-02-18T09:01:12;14.15;;;4.90;;
14171;SDS011;7165;52.388;4.928;2023-02-18T09:03:40;10.77;;;5.07;;
14171;SDS011;7165;52.388;4.928;2023-02-18T09:06:07;12.35;;;4.47;;
14171;SDS011;7165;52.388;4.928;2023-02-18T09:08:34;12.82;;;4.95;;
14171;SDS011;7165;52.388;4.928;2023-02-18T09:11:01;12.95;;;5.10;;
14171;SDS011;7165;52.388;4.928;2023-02-18T09:13:29;14.27;;;4.43;;
14171;SDS011;7165;52.388;4.928;2023-02-18T09:15:57;21.25;;;6.15;;
14171;SDS011;7165;52.388;4.928;2023-02-18T09:18:24;11.52;;;4.20;;
14171;SDS011;7165;52.388;4.928;2023-02-18T09:20:55;14.95;;;5.10;;
14171;SDS011;7165;52.388;4.928;2023-02-18T09:23:23;14.95;;;4.72;;
14171;SDS011;7165;52.388;4.928;2023-02-18T09:25:50;16.90;;;3.78;;
14171;SDS011;7165;52.388;4.928;2023-02-18T09:28:16;16.23;;;4.80;;
14171;SDS011;7165;52.388;4.928;2023-02-18T09:30:43;17.73;;;4.43;;
14171;SDS011;7165;52.388;4.928;2023-02-18T09:33:09;12.23;;;4.90;;
14171;SDS011;7165;52.388;4.928;2023-02-18T09:35:37;12.50;;;4.65;;
14171;SDS011;7165;52.388;4.928;2023-02-18T09:38:07;12.52;;;4.72;;
14171;SDS011;7165;52.388;4.928;2023-02-18T09:40:34;15.63;;;6.00;;
14171;SDS011;7165;52.388;4.928;2023-02-18T09:43:04;13.25;;;5.03;;
14171;SDS011;7165;52.388;4.928;2023-02-18T09:45:31;14.85;;;5.13;;
14171;SDS011;7165;52.388;4.928;2023-02-18T09:47:58;11.57;;;5.10;;
14171;SDS011;7165;52.388;4.928;2023-02-18T09:50:28;9.50;;;4.40;;
14171;SDS011;7165;52.388;4.928;2023-02-18T09:52:57;14.55;;;4.82;;
14171;SDS011;7165;52.388;4.928;2023-02-18T09:55:27;12.82;;;4.30;;
14171;SDS011;7165;52.388;4.928;2023-02-18T09:57:58;20.80;;;5.53;;
14171;SDS011;7165;52.388;4.928;2023-02-18T10:00:30;13.05;;;5.22;;
14171;SDS011;7165;52.388;4.928;2023-02-18T10:03:00;15.65;;;4.05;;
14171;SDS011;7165;52.388;4.928;2023-02-18T10:05:30;12.13;;;4.97;;
14171;SDS011;7165;52.388;4.928;2023-02-18T10:07:59;20.02;;;6.40;;
14171;SDS011;7165;52.388;4.928;2023-02-18T10:10:33;14.48;;;4.65;;
14171;SDS011;7165;52.388;4.928;2023-02-18T10:13:03;16.30;;;5.22;;
14171;SDS011;7165;52.388;4.928;2023-02-18T10:15:32;24.85;;;5.80;;
14171;SDS011;7165;52.388;4.928;2023-02-18T10:17:59;14.20;;;5.32;;
14171;SDS011;7165;52.388;4.928;2023-02-18T10:20:28;14.15;;;4.72;;
14171;SDS011;7165;52.388;4.928;2023-02-18T10:22:57;12.15;;;4.55;;
14171;SDS011;7165;52.388;4.928;2023-02-18T10:25:29;11.70;;;5.18;;
14171;SDS011;7165;52.388;4.928;2023-02-18T10:27:59;19.95;;;5.32;;
14171;SDS011;7165;52.388;4.928;2023-02-18T10:30:26;7.72;;;4.38;;
14171;SDS011;7165;52.388;4.928;2023-02-18T10:33:00;18.17;;;4.65;;
14171;SDS011;7165;52.388;4.928;2023-02-18T10:35:39;11.95;;;3.78;;
14171;SDS011;7165;52.388;4.928;2023-02-18T10:38:15;15.05;;;5.10;;
14171;SDS011;7165;52.388;4.928;2023-02-18T10:40:53;14.75;;;5.13;;
14171;SDS011;7165;52.388;4.928;2023-02-18T10:43:29;15.60;;;5.07;;
14171;SDS011;7165;52.388;4.928;2023-02-18T10:46:04;13.13;;;5.05;;
14171;SDS011;7165;52.388;4.928;2023-02-18T10:48:43;15.63;;;5.55;;
14171;SDS011;7165;52.388;4.928;2023-02-18T10:51:21;14.35;;;4.97;;
14171;SDS011;7165;52.388;4.928;2023-02-18T10:53:51;13.88;;;4.43;;
14171;SDS011;7165;52.388;4.928;2023-02-18T10:56:33;14.70;;;5.10;;
14171;SDS011;7165;52.388;4.928;2023-02-18T10:59:09;12.50;;;5.03;;
14171;SDS011;7165;52.388;4.928;2023-02-18T11:01:37;13.48;;;4.88;;
14171;SDS011;7165;52.388;4.928;2023-02-18T11:04:06;16.30;;;5.35;;
14171;SDS011;7165;52.388;4.928;2023-02-18T11:06:38;10.00;;;4.63;;
14171;SDS011;7165;52.388;4.928;2023-02-18T11:09:06;12.48;;;4.53;;
14171;SDS011;7165;52.388;4.928;2023-02-18T11:11:49;13.45;;;4.68;;
14171;SDS011;7165;52.388;4.928;2023-02-18T11:14:20;17.17;;;4.50;;
14171;SDS011;7165;52.388;4.928;2023-02-18T11:17:20;16.85;;;4.15;;
14171;SDS011;7165;52.388;4.928;2023-02-18T11:19:52;13.15;;;5.10;;
14171;SDS011;7165;52.388;4.928;2023-02-18T11:22:21;9.80;;;4.40;;
14171;SDS011;7165;52.388;4.928;2023-02-18T11:24:52;13.15;;;4.35;;
14171;SDS011;7165;52.388;4.928;2023-02-18T11:27:23;13.70;;;4.47;;
14171;SDS011;7165;52.388;4.928;2023-02-18T11:29:53;15.63;;;4.30;;
14171;SDS011;7165;52.388;4.928;2023-02-18T11:32:25;14.07;;;4.43;;
14171;SDS011;7165;52.388;4.928;2023-02-18T11:34:53;12.57;;;4.07;;
14171;SDS011;7165;52.388;4.928;2023-02-18T11:37:21;14.98;;;5.10;;
14171;SDS011;7165;52.388;4.928;2023-02-18T11:39:49;13.00;;;5.47;;
14171;SDS011;7165;52.388;4.928;2023-02-18T11:42:19;12.52;;;4.97;;
14171;SDS011;7165;52.388;4.928;2023-02-18T11:44:50;13.68;;;5.00;;
14171;SDS011;7165;52.388;4.928;2023-02-18T11:47:20;10.85;;;4.20;;
14171;SDS011;7165;52.388;4.928;2023-02-18T11:49:58;13.35;;;3.67;;
14171;SDS011;7165;52.388;4.928;2023-02-18T11:52:27;10.52;;;4.35;;
14171;SDS011;7165;52.388;4.928;2023-02-18T11:54:59;16.80;;;3.83;;
14171;SDS011;7165;52.388;4.928;2023-02-18T11:57:27;12.60;;;4.03;;
14171;SDS011;7165;52.388;4.928;2023-02-18T11:59:56;12.98;;;4.60;;
14171;SDS011;7165;52.388;4.928;2023-02-18T12:02:27;13.65;;;4.53;;
14171;SDS011;7165;52.388;4.928;2023-02-18T12:04:59;11.73;;;4.30;;
14171;SDS011;7165;52.388;4.928;2023-02-18T12:07:29;16.10;;;4.13;;
14171;SDS011;7165;52.388;4.928;2023-02-18T12:10:09;12.07;;;4.00;;
14171;SDS011;7165;52.388;4.928;2023-02-18T12:12:40;6.45;;;4.30;;
14171;SDS011;7165;52.388;4.928;2023-02-18T12:15:15;7.65;;;3.38;;
14171;SDS011;7165;52.388;4.928;2023-02-18T12:17:48;11.52;;;3.72;;
14171;SDS011;7165;52.388;4.928;2023-02-18T12:20:31;10.68;;;4.18;;
14171;SDS011;7165;52.388;4.928;2023-02-18T12:23:12;8.32;;;3.75;;
14171;SDS011;7165;52.388;4.928;2023-02-18T12:25:46;9.40;;;3.40;;
14171;SDS011;7165;52.388;4.928;2023-02-18T12:28:25;10.73;;;4.05;;
14171;SDS011;7165;52.388;4.928;2023-02-18T12:31:08;21.08;;;5.05;;
14171;SDS011;7165;52.388;4.928;2023-02-18T12:33:53;11.90;;;3.78;;
14171;SDS011;7165;52.388;4.928;2023-02-18T12:36:32;10.30;;;3.22;;
14171;SDS011;7165;52.388;4.928;2023-02-18T12:39:15;9.85;;;4.05;;
14171;SDS011;7165;52.388;4.928;2023-02-18T12:42:00;11.20;;;3.83;;
14171;SDS011;7165;52.388;4.928;2023-02-18T12:44:40;9.52;;;3.42;;
14171;SDS011;7165;52.388;4.928;2023-02-18T12:47:27;14.55;;;4.43;;
14171;SDS011;7165;52.388;4.928;2023-02-18T12:50:08;13.20;;;4.20;;
14171;SDS011;7165;52.388;4.928;2023-02-18T12:52:58;8.43;;;3.30;;
14171;SDS011;7165;52.388;4.928;2023-02-18T12:55:45;9.15;;;3.35;;
14171;SDS011;7165;52.388;4.928;2023-02-18T12:58:23;14.20;;;5.15;;
14171;SDS011;7165;52.388;4.928;2023-02-18T13:01:03;12.18;;;4.47;;
14171;SDS011;7165;52.388;4.928;2023-02-18T13:03:52;13.20;;;5.07;;
14171;SDS011;7165;52.388;4.928;2023-02-18T13:06:46;8.65;;;3.55;;
14171;SDS011;7165;52.388;4.928;2023-02-18T13:09:34;8.90;;;4.13;;
14171;SDS011;7165;52.388;4.928;2023-02-18T13:12:12;13.43;;;4.40;;
14171;SDS011;7165;52.388;4.928;2023-02-18T13:14:45;12.30;;;4.28;;
14171;SDS011;7165;52.388;4.928;2023-02-18T13:17:19;11.57;;;5.28;;
14171;SDS011;7165;52.388;4.928;2023-02-18T13:19:48;9.10;;;3.38;;
14171;SDS011;7165;52.388;4.928;2023-02-18T13:22:19;15.82;;;3.80;;
14171;SDS011;7165;52.388;4.928;2023-02-18T13:24:48;14.32;;;3.90;;
14171;SDS011;7165;52.388;4.928;2023-02-18T13:27:20;10.00;;;4.32;;
14171;SDS011;7165;52.388;4.928;2023-02-18T13:29:57;15.48;;;4.35;;
14171;SDS011;7165;52.388;4.928;2023-02-18T13:32:33;13.68;;;4.10;;
14171;SDS011;7165;52.388;4.928;2023-02-18T13:35:17;9.50;;;3.58;;
14171;SDS011;7165;52.388;4.928;2023-02-18T13:37:51;10.15;;;4.50;;
14171;SDS011;7165;52.388;4.928;2023-02-18T13:40:28;13.70;;;4.25;;
14171;SDS011;7165;52.388;4.928;2023-02-18T13:48:28;14.32;;;4.50;;
14171;SDS011;7165;52.388;4.928;2023-02-18T13:51:00;10.60;;;4.07;;
14171;SDS011;7165;52.388;4.928;2023-02-18T13:53:30;13.80;;;3.75;;
14171;SDS011;7165;52.388;4.928;2023-02-18T13:56:02;12.40;;;3.65;;
14171;SDS011;7165;52.388;4.928;2023-02-18T13:58:35;13.82;;;4.68;;
14171;SDS011;7165;52.388;4.928;2023-02-18T14:01:11;12.85;;;3.88;;
14171;SDS011;7165;52.388;4.928;2023-02-18T14:03:51;10.07;;;4.43;;
14171;SDS011;7165;52.388;4.928;2023-02-18T14:06:26;10.10;;;4.35;;
14171;SDS011;7165;52.388;4.928;2023-02-18T14:09:02;7.53;;;4.03;;
14171;SDS011;7165;52.388;4.928;2023-02-18T14:11:53;12.70;;;5.03;;
14171;SDS011;7165;52.388;4.928;2023-02-18T14:14:33;17.35;;;5.22;;
14171;SDS011;7165;52.388;4.928;2023-02-18T14:17:13;13.20;;;4.60;;
14171;SDS011;7165;52.388;4.928;2023-02-18T14:19:55;13.80;;;4.65;;
14171;SDS011;7165;52.388;4.928;2023-02-18T14:23:11;15.27;;;5.22;;
14171;SDS011;7165;52.388;4.928;2023-02-18T14:25:57;11.27;;;4.05;;
14171;SDS011;7165;52.388;4.928;2023-02-18T14:28:35;11.63;;;4.15;;
14171;SDS011;7165;52.388;4.928;2023-02-18T14:31:05;10.05;;;4.45;;
14171;SDS011;7165;52.388;4.928;2023-02-18T14:33:48;9.85;;;3.88;;
14171;SDS011;7165;52.388;4.928;2023-02-18T14:36:28;13.63;;;3.90;;
14171;SDS011;7165;52.388;4.928;2023-02-18T14:39:02;11.93;;;4.47;;
14171;SDS011;7165;52.388;4.928;2023-02-18T14:41:38;13.15;;;4.25;;
14171;SDS011;7165;52.388;4.928;2023-02-18T14:44:21;11.82;;;4.50;;
14171;SDS011;7165;52.388;4.928;2023-02-18T14:47:16;11.35;;;4.72;;
14171;SDS011;7165;52.388;4.928;2023-02-18T14:49:51;11.80;;;4.30;;
14171;SDS011;7165;52.388;4.928;2023-02-18T14:52:24;7.53;;;4.38;;
14171;SDS011;7165;52.388;4.928;2023-02-18T14:54:56;14.52;;;4.85;;
14171;SDS011;7165;52.388;4.928;2023-02-18T14:57:27;9.05;;;3.60;;
14171;SDS011;7165;52.388;4.928;2023-02-18T14:59:59;9.25;;;5.22;;
14171;SDS011;7165;52.388;4.928;2023-02-18T15:02:26;11.35;;;4.95;;
14171;SDS011;7165;52.388;4.928;2023-02-18T15:05:00;13.00;;;4.32;;
14171;SDS011;7165;52.388;4.928;2023-02-18T15:07:37;10.70;;;4.82;;
14171;SDS011;7165;52.388;4.928;2023-02-18T15:10:11;18.17;;;5.28;;
14171;SDS011;7165;52.388;4.928;2023-02-18T15:12:39;11.30;;;4.88;;
14171;SDS011;7165;52.388;4.928;2023-02-18T15:15:08;12.40;;;3.92;;